»·PEaware :: N27RF KBUR-KLAS

N27RF :: KBUR-KLAS

FLIGHT INFORMATION

Flight Status: Arrived
Operator: Privately registered:
United States
More flights under this callsign
Pilot: Andrew C. (32327)
Aircraft: CIRRUS SR-22 TURBO
(S22T)
More flights by this aircraft type
Origin: KBUR Bob Hope-Burbank
United States
Destination: KLAS McCarran Intl
United States
More flights between these airports :: More routes between these airports
Route: VNY3 DAG CRESO4
File this flight plan on PilotEdge
Remarks:
Altitude:
(Current/Filed)
18,000ft
Speed:
(Current/Filed)
165kts
Departed: 03-Jan-21 02:50 PM
Arrived: 03-Jan-21 04:09 PM
Distance/Time
Traveled:
193nm/1:19
Distance/Time
To Go:
Arrived

Flight Plot

Page will automatically refresh every two minutes.

Flight plan parsing failed; only flown route is shown


Map Options




Map Legend


Flown Route
Filed Route
Departure Airport
Arrival Airport
Navaid (VOR, NDB)
Fix

Horizontal Profiles

Position Reports

Time Latitude Longitude Heading Altitude Ground
Speed
03-Jan-21 14:35 34.200040 -118.358847 261 723ft 0kts
03-Jan-21 14:36 34.200040 -118.358847 261 723ft 0kts
03-Jan-21 14:37 34.200040 -118.358847 261 723ft 0kts
03-Jan-21 14:38 34.200040 -118.358847 261 723ft 0kts
03-Jan-21 14:39 34.200040 -118.358847 261 723ft 0kts
03-Jan-21 14:40 34.200040 -118.358847 261 723ft 0kts
03-Jan-21 14:41 34.200040 -118.358847 261 723ft 0kts
03-Jan-21 14:42 34.200040 -118.358847 261 723ft 0kts
03-Jan-21 14:43 34.200040 -118.358847 261 723ft 0kts
03-Jan-21 14:44 34.200039 -118.358854 259 723ft 0kts
03-Jan-21 14:45 34.199796 -118.358137 353 721ft 9kts
03-Jan-21 14:46 34.203485 -118.359172 345 735ft 16kts
03-Jan-21 14:47 34.208070 -118.360450 345 755ft 17kts
03-Jan-21 14:48 34.211529 -118.361383 354 767ft 0kts
03-Jan-21 14:49 34.209387 -118.359688 167 760ft 68kts
03-Jan-21 14:50 34.184747 -118.365449 224 1734ft 104kts
03-Jan-21 14:51 34.163883 -118.390639 224 2963ft 109kts
03-Jan-21 14:52 34.142587 -118.416938 224 4192ft 112kts
03-Jan-21 14:53 34.146146 -118.442870 350 5457ft 107kts
03-Jan-21 14:54 34.175505 -118.446558 354 6677ft 106kts
03-Jan-21 14:55 34.204874 -118.448636 354 7828ft 107kts
03-Jan-21 14:56 34.234015 -118.450608 353 8819ft 105kts
03-Jan-21 14:57 34.263236 -118.452543 352 9678ft 105kts
03-Jan-21 14:58 34.292450 -118.454504 351 10694ft 106kts
03-Jan-21 14:59 34.329932 -118.457076 353 10816ft 159kts
03-Jan-21 15:00 34.368490 -118.459509 350 12181ft 115kts
03-Jan-21 15:01 34.396355 -118.438726 40 13246ft 139kts
03-Jan-21 15:02 34.420506 -118.400890 42 14314ft 144kts
03-Jan-21 15:03 34.444976 -118.362043 42 15282ft 147kts
03-Jan-21 15:04 34.470074 -118.322075 43 16157ft 151kts
03-Jan-21 15:05 34.495794 -118.281084 43 17106ft 154kts
03-Jan-21 15:06 34.521937 -118.239354 43 18054ft 157kts
03-Jan-21 15:07 34.548512 -118.196864 43 18967ft 161kts
03-Jan-21 15:08 34.578956 -118.148175 45 19007ft 194kts
03-Jan-21 15:09 34.612324 -118.094579 45 19000ft 202kts
03-Jan-21 15:10 34.635066 -118.032126 77 19001ft 214kts
03-Jan-21 15:11 34.642855 -117.959942 76 18999ft 215kts
03-Jan-21 15:12 34.650698 -117.888036 76 18998ft 213kts
03-Jan-21 15:13 34.658445 -117.816699 76 18999ft 212kts
03-Jan-21 15:14 34.668526 -117.746504 65 19001ft 208kts
03-Jan-21 15:15 34.685884 -117.679104 65 19000ft 209kts
03-Jan-21 15:16 34.703191 -117.611534 65 19000ft 209kts
03-Jan-21 15:17 34.720490 -117.543911 65 19000ft 209kts
03-Jan-21 15:18 34.737788 -117.476058 65 19000ft 209kts
03-Jan-21 15:19 34.755029 -117.408266 64 19001ft 210kts
03-Jan-21 15:20 34.772244 -117.340411 65 18997ft 210kts
03-Jan-21 15:21 34.789360 -117.272692 65 18996ft 209kts
03-Jan-21 15:23 34.806512 -117.204774 65 18997ft 209kts
03-Jan-21 15:24 34.823593 -117.136903 65 18997ft 209kts
03-Jan-21 15:25 34.840666 -117.068895 64 18997ft 210kts
03-Jan-21 15:26 34.857692 -117.000880 64 18997ft 210kts
03-Jan-21 15:27 34.874684 -116.932788 64 18997ft 210kts
03-Jan-21 15:28 34.891708 -116.864462 64 18998ft 210kts
03-Jan-21 15:29 34.908656 -116.796215 64 18998ft 211kts
03-Jan-21 15:30 34.925640 -116.727634 64 18998ft 211kts
03-Jan-21 15:31 34.942551 -116.659204 64 18998ft 211kts
03-Jan-21 15:32 34.959488 -116.590454 64 18998ft 211kts
03-Jan-21 15:33 34.984859 -116.527927 51 18999ft 205kts
03-Jan-21 15:34 35.012075 -116.466754 51 18999ft 205kts
03-Jan-21 15:35 35.039155 -116.405721 51 18999ft 205kts
03-Jan-21 15:36 35.066300 -116.344441 51 18996ft 205kts
03-Jan-21 15:37 35.093160 -116.283647 51 19152ft 196kts
03-Jan-21 15:38 35.119480 -116.224096 51 19213ft 202kts
03-Jan-21 15:38 35.141904 -116.173207 51 19212ft 204kts
03-Jan-21 15:39 35.168867 -116.111904 51 19210ft 205kts
03-Jan-21 15:40 35.197231 -116.047417 52 18507ft 226kts
03-Jan-21 15:42 35.232610 -115.966635 52 17331ft 234kts
03-Jan-21 15:42 35.258110 -115.908279 53 16443ft 231kts
03-Jan-21 15:43 35.288095 -115.839588 53 15435ft 227kts
03-Jan-21 15:44 35.319838 -115.774682 39 14443ft 215kts
03-Jan-21 15:45 35.360170 -115.721261 39 13486ft 213kts
03-Jan-21 15:46 35.399946 -115.668215 40 12548ft 210kts
03-Jan-21 15:47 35.439333 -115.615618 41 11621ft 208kts
03-Jan-21 15:48 35.478147 -115.563694 43 10706ft 205kts
03-Jan-21 15:49 35.516165 -115.512717 44 9993ft 193kts
03-Jan-21 15:50 35.550618 -115.466464 43 9997ft 178kts
03-Jan-21 15:51 35.584166 -115.421480 44 9676ft 192kts
03-Jan-21 15:52 35.620675 -115.372368 46 8186ft 189kts
03-Jan-21 15:53 35.655245 -115.325731 46 7998ft 180kts
03-Jan-21 15:54 35.689005 -115.280218 46 7999ft 180kts
03-Jan-21 15:55 35.722710 -115.234691 46 7999ft 180kts
03-Jan-21 15:56 35.760805 -115.198035 11 8005ft 178kts
03-Jan-21 15:57 35.809449 -115.185157 11 7999ft 178kts
03-Jan-21 15:58 35.857831 -115.172347 11 7999ft 178kts
03-Jan-21 15:59 35.906978 -115.159322 11 7998ft 177kts
03-Jan-21 16:00 35.955088 -115.146552 11 7999ft 176kts
03-Jan-21 16:01 36.003799 -115.133614 11 7999ft 176kts
03-Jan-21 16:02 36.053243 -115.120823 11 7999ft 176kts
03-Jan-21 16:03 36.098246 -115.098181 34 7014ft 169kts
03-Jan-21 16:04 36.135678 -115.077810 340 5206ft 142kts
03-Jan-21 16:05 36.137670 -115.112091 242 4183ft 119kts
03-Jan-21 16:06 36.118643 -115.144354 216 3090ft 113kts
03-Jan-21 16:07 36.095107 -115.159044 204 2182ft 67kts
03-Jan-21 16:08 36.089326 -115.163559 273 2181ft 1kts
03-Jan-21 16:09 36.086018 -115.166664 207 2181ft 31kts

Navigation Log

Ident Type
Flight plan parsing failed, navigation log unavailable